METAR Data
IDs: Format: Raw Decoded Include TAF

Data at: 1551 UTC 21 Sep 2018

KGCN 211454Z 06003KT 10SM CLR 13/02 A3033 RMK AO2 SLP205 T01330017 51015
KGCN 211354Z 08003KT 10SM CLR 04/01 A3032 RMK AO2 SLP219 T00440006
KGCN 211254Z 09003KT 10SM CLR 03/M01 A3030 RMK AO2 SLP194 T00281006
KGCN 211154Z AUTO 08003KT 10SM CLR 03/M01 A3028 RMK AO2 SLP184 T00281006 10072 20028 51006
KGCN 211054Z AUTO 00000KT 10SM CLR 03/00 A3027 RMK AO2 SLP180 T00330000
KGCN 210954Z AUTO 00000KT 10SM CLR 04/00 A3026 RMK AO2 SLP173 T00390000
KGCN 210854Z AUTO 00000KT 10SM CLR 04/01 A3026 RMK AO2 SLP171 T00440006 51004
KGCN 210754Z AUTO 05005KT 10SM CLR 05/M01 A3026 RMK AO2 SLP170 T00501006
KGCN 210654Z AUTO 00000KT 10SM CLR 06/01 A3025 RMK AO2 SLP172 T00560006 402560044
KGCN 210554Z AUTO 00000KT 10SM CLR 07/01 A3024 RMK AO2 SLP166 T00720006 10239 20067 51010
KGCN 210454Z AUTO 06003KT 10SM CLR 08/M01 A3024 RMK AO2 SLP171 T00781006
KGCN 210354Z AUTO 00000KT 10SM CLR 10/01 A3023 RMK AO2 SLP167 T01000006
KGCN 210254Z AUTO 05005KT 10SM CLR 12/M01 A3021 RMK AO2 SLP171 T01171006 53015
KGCN 210154Z 05003KT 10SM CLR 14/M01 A3019 RMK AO2 SLP165 T01441006
KGCN 210054Z VRB03KT 10SM CLR 23/M03 A3017 RMK AO2 SLP140 T02281033
KGCN 202354Z 10SM CLR 24/M01 A3016 RMK AO2 SLP136 T02391011 10256 20211 55000
KGCN 202254Z 04008KT 10SM CLR 24/M03 A3016 RMK AO2 SLP133 T02441033
KGCN 202154Z 34008KT 10SM CLR 24/M01 A3015 RMK AO2 SLP124 T02441011
KGCN 202054Z 00000KT 10SM FEW050 24/M05 A3016 RMK AO2 SLP122 T02441050 58009
KGCN 201954Z VRB06KT 10SM CLR 23/00 A3017 RMK AO2 SLP134 T02330000
KGCN 201854Z VRB05KT 10SM CLR 22/08 A3018 RMK AO2 SLP137 T02220083
KGCN 201754Z VRB03KT 10SM CLR 21/04 A3019 RMK AO2 SLP142 T02110039 10211 20044 51006
KGCN 201654Z VRB06KT 10SM CLR 19/09 A3019 RMK AO2 SLP144 T01890094
KGCN 201554Z 00000KT 10SM CLR 16/12 A3018 RMK AO2 SLP142 T01610117
KGCN 201454Z 00000KT 10SM FEW001 SCT006 11/09 A3017 RMK AO2 SLP148 T01060094 51016
KGCN 201401Z 00000KT 9SM SCT008 07/06 A3016 RMK AO2 T00720061
KGCN 201354Z 00000KT 10SM BKN010 07/06 A3015 RMK AO2 SLP148 T00670061
KGCN 201331Z 00000KT 10SM BKN010 06/06 A3014 RMK AO2 T00610061
KGCN 201320Z 08003KT 9SM BKN009 06/06 A3014 RMK AO2 T00610056
KGCN 201254Z 05003KT 7SM CLR 06/05 A3013 RMK AO2 SLP138 T00560050
KGCN 201200Z AUTO 00000KT 3SM BR SCT009 06/06 A3011 RMK AO2 T00560056
KGCN 201158Z AUTO 00000KT 1 1/2SM BR SCT009 06/05 A3011 RMK AO2 T00560050
KGCN 201156Z AUTO 00000KT 1SM BR VV009 05/05 A3011 RMK AO2 T00500050
KGCN 201154Z AUTO 00000KT 1/2SM FG VV010 05/05 A3011 RMK AO2 SLP128 70008 T00500050 10106 20050 53003
KGCN 201151Z AUTO 00000KT 1/2SM FG VV010 06/05 A3011 RMK AO2
KGCN 201146Z AUTO 00000KT 1 1/4SM BR FEW002 FEW009 06/05 A3011 RMK AO2 VIS 1/4V5 T00560050
KGCN 201108Z AUTO 00000KT 3SM BR FEW009 06/06 A3011 RMK AO2 T00610061
KGCN 201104Z AUTO 00000KT 1 1/2SM BR FEW009 07/06 A3011 RMK AO2 T00670061
KGCN 201058Z AUTO 00000KT 1/2SM FG VV010 06/06 A3011 RMK AO2 T00610056
KGCN 201054Z AUTO 00000KT 1/4SM FG VV009 06/06 A3011 RMK AO2 SLP124 T00560056
KGCN 201048Z AUTO 00000KT 3/4SM BR VV008 06/06 A3011 RMK AO2
KGCN 201045Z AUTO 00000KT 1 3/4SM BR CLR 07/07 A3011 RMK AO2 VIS 1/2V5 T00670067
KGCN 201002Z AUTO 00000KT 10SM SCT012 09/08 A3010 RMK AO2 T00890078
KGCN 200954Z AUTO 00000KT 10SM BKN012 09/08 A3010 RMK AO2 SLP128 T00890078
KGCN 200933Z AUTO 00000KT 10SM BKN012 09/08 A3010 RMK AO2 T00890078
KGCN 200924Z AUTO 00000KT 10SM SCT012 09/08 A3010 RMK AO2 T00940083
KGCN 200910Z AUTO 07003KT 10SM BKN012 09/09 A3010 RMK AO2 T00940089
KGCN 200901Z AUTO 08003KT 10SM SCT014 09/08 A3010 RMK AO2 T00890083
KGCN 200854Z AUTO 07003KT 10SM BKN014 09/08 A3010 RMK AO2 SLP127 T00940083 56000
KGCN 200850Z AUTO 08003KT 10SM BKN014 09/08 A3010 RMK AO2
KGCN 200822Z AUTO 00000KT 9SM BKN017 09/08 A3010 RMK AO2 T00890083
KGCN 200754Z AUTO 00000KT 10SM CLR 08/08 A3010 RMK AO2 SLP107 T00830078
KGCN 200654Z AUTO 00000KT 10SM CLR 09/09 A3010 RMK AO2 SLP108 T00940089 402500056
KGCN 200554Z AUTO 06003KT 10SM CLR 10/09 A3010 RMK AO2 SLP105 T01000089 10206 20094 51012
KGCN 200454Z AUTO 09003KT 10SM CLR 11/09 A3009 RMK AO2 SLP104 T01060094
KGCN 200354Z AUTO 00000KT 10SM CLR 12/10 A3008 RMK AO2 SLP100 T01220100